sensor_id;sensor_type;location;lat;lon;timestamp;P1;durP1;ratioP1;P2;durP2;ratioP2
22665;SDS011;11499;49.486;11.104;2023-02-28T00:01:01;3.93;;;2.30;;
22665;SDS011;11499;49.486;11.104;2023-02-28T00:03:27;2.13;;;1.83;;
22665;SDS011;11499;49.486;11.104;2023-02-28T00:05:52;2.67;;;1.90;;
22665;SDS011;11499;49.486;11.104;2023-02-28T00:08:18;2.53;;;1.97;;
22665;SDS011;11499;49.486;11.104;2023-02-28T00:10:43;2.40;;;2.00;;
22665;SDS011;11499;49.486;11.104;2023-02-28T00:13:09;3.33;;;2.07;;
22665;SDS011;11499;49.486;11.104;2023-02-28T00:15:34;2.97;;;1.90;;
22665;SDS011;11499;49.486;11.104;2023-02-28T00:21:03;2.80;;;2.03;;
22665;SDS011;11499;49.486;11.104;2023-02-28T00:23:29;2.23;;;2.00;;
22665;SDS011;11499;49.486;11.104;2023-02-28T00:25:55;3.60;;;2.30;;
22665;SDS011;11499;49.486;11.104;2023-02-28T00:28:20;2.30;;;1.77;;
22665;SDS011;11499;49.486;11.104;2023-02-28T00:30:46;3.07;;;2.30;;
22665;SDS011;11499;49.486;11.104;2023-02-28T00:33:12;2.37;;;1.90;;
22665;SDS011;11499;49.486;11.104;2023-02-28T00:35:38;2.30;;;2.10;;
22665;SDS011;11499;49.486;11.104;2023-02-28T00:38:03;2.30;;;2.03;;
22665;SDS011;11499;49.486;11.104;2023-02-28T00:40:29;2.20;;;2.00;;
22665;SDS011;11499;49.486;11.104;2023-02-28T00:42:55;3.87;;;2.27;;
22665;SDS011;11499;49.486;11.104;2023-02-28T00:48:01;2.77;;;2.07;;
22665;SDS011;11499;49.486;11.104;2023-02-28T00:50:26;4.40;;;2.37;;
22665;SDS011;11499;49.486;11.104;2023-02-28T00:52:52;3.20;;;2.20;;
22665;SDS011;11499;49.486;11.104;2023-02-28T00:55:17;3.80;;;2.37;;
22665;SDS011;11499;49.486;11.104;2023-02-28T00:57:43;3.33;;;2.50;;
22665;SDS011;11499;49.486;11.104;2023-02-28T01:00:09;3.37;;;2.10;;
22665;SDS011;11499;49.486;11.104;2023-02-28T01:02:35;3.33;;;2.37;;
22665;SDS011;11499;49.486;11.104;2023-02-28T01:05:01;2.90;;;2.30;;
22665;SDS011;11499;49.486;11.104;2023-02-28T01:07:26;3.20;;;2.30;;
22665;SDS011;11499;49.486;11.104;2023-02-28T01:09:52;2.40;;;2.20;;
22665;SDS011;11499;49.486;11.104;2023-02-28T01:14:59;2.97;;;2.10;;
22665;SDS011;11499;49.486;11.104;2023-02-28T01:17:24;2.83;;;2.03;;
22665;SDS011;11499;49.486;11.104;2023-02-28T01:19:52;5.00;;;2.40;;
22665;SDS011;11499;49.486;11.104;2023-02-28T01:22:19;3.17;;;2.40;;
22665;SDS011;11499;49.486;11.104;2023-02-28T01:24:44;2.43;;;2.10;;
22665;SDS011;11499;49.486;11.104;2023-02-28T01:27:10;2.67;;;2.33;;
22665;SDS011;11499;49.486;11.104;2023-02-28T01:29:35;2.83;;;2.17;;
22665;SDS011;11499;49.486;11.104;2023-02-28T01:32:01;2.80;;;2.40;;
22665;SDS011;11499;49.486;11.104;2023-02-28T01:34:26;2.33;;;2.10;;
22665;SDS011;11499;49.486;11.104;2023-02-28T01:36:52;3.73;;;2.40;;
22665;SDS011;11499;49.486;11.104;2023-02-28T01:41:56;3.30;;;2.50;;
22665;SDS011;11499;49.486;11.104;2023-02-28T01:47:20;2.50;;;2.00;;
22665;SDS011;11499;49.486;11.104;2023-02-28T01:49:46;3.90;;;2.80;;
22665;SDS011;11499;49.486;11.104;2023-02-28T01:52:14;2.83;;;2.50;;
22665;SDS011;11499;49.486;11.104;2023-02-28T01:54:43;3.90;;;2.10;;
22665;SDS011;11499;49.486;11.104;2023-02-28T01:57:14;3.53;;;2.67;;
22665;SDS011;11499;49.486;11.104;2023-02-28T01:59:52;5.13;;;2.43;;
22665;SDS011;11499;49.486;11.104;2023-02-28T02:02:29;3.63;;;2.53;;
22665;SDS011;11499;49.486;11.104;2023-02-28T02:08:28;3.63;;;2.57;;
22665;SDS011;11499;49.486;11.104;2023-02-28T02:18:40;3.50;;;2.47;;
22665;SDS011;11499;49.486;11.104;2023-02-28T02:21:37;2.77;;;2.50;;
22665;SDS011;11499;49.486;11.104;2023-02-28T02:35:38;3.50;;;2.60;;
22665;SDS011;11499;49.486;11.104;2023-02-28T02:39:14;4.53;;;2.90;;
22665;SDS011;11499;49.486;11.104;2023-02-28T02:41:48;2.93;;;2.37;;
22665;SDS011;11499;49.486;11.104;2023-02-28T02:47:07;3.30;;;2.33;;
22665;SDS011;11499;49.486;11.104;2023-02-28T02:49:36;3.37;;;2.80;;
22665;SDS011;11499;49.486;11.104;2023-02-28T02:52:06;3.43;;;2.70;;
22665;SDS011;11499;49.486;11.104;2023-02-28T02:54:37;3.70;;;2.67;;
22665;SDS011;11499;49.486;11.104;2023-02-28T02:57:08;4.13;;;2.77;;
22665;SDS011;11499;49.486;11.104;2023-02-28T02:59:38;3.53;;;2.70;;
22665;SDS011;11499;49.486;11.104;2023-02-28T03:02:06;2.87;;;2.53;;
22665;SDS011;11499;49.486;11.104;2023-02-28T03:06:33;3.37;;;2.60;;
22665;SDS011;11499;49.486;11.104;2023-02-28T03:09:00;3.97;;;2.60;;
22665;SDS011;11499;49.486;11.104;2023-02-28T03:11:26;5.10;;;3.20;;
22665;SDS011;11499;49.486;11.104;2023-02-28T03:14:04;4.03;;;3.07;;
22665;SDS011;11499;49.486;11.104;2023-02-28T03:25:32;4.20;;;3.10;;
22665;SDS011;11499;49.486;11.104;2023-02-28T03:28:07;4.10;;;3.17;;
22665;SDS011;11499;49.486;11.104;2023-02-28T03:30:54;3.30;;;3.00;;
22665;SDS011;11499;49.486;11.104;2023-02-28T03:36:13;5.60;;;3.40;;
22665;SDS011;11499;49.486;11.104;2023-02-28T03:38:46;3.93;;;3.00;;
22665;SDS011;11499;49.486;11.104;2023-02-28T03:41:19;3.77;;;3.30;;
22665;SDS011;11499;49.486;11.104;2023-02-28T03:43:55;4.73;;;3.63;;
22665;SDS011;11499;49.486;11.104;2023-02-28T03:46:26;3.60;;;2.97;;
22665;SDS011;11499;49.486;11.104;2023-02-28T03:48:57;4.40;;;3.60;;
22665;SDS011;11499;49.486;11.104;2023-02-28T03:51:45;4.30;;;3.40;;
22665;SDS011;11499;49.486;11.104;2023-02-28T03:54:13;4.40;;;3.40;;
22665;SDS011;11499;49.486;11.104;2023-02-28T03:56:56;5.00;;;3.40;;
22665;SDS011;11499;49.486;11.104;2023-02-28T04:02:54;4.20;;;3.40;;
22665;SDS011;11499;49.486;11.104;2023-02-28T04:05:20;5.63;;;3.70;;
22665;SDS011;11499;49.486;11.104;2023-02-28T04:07:46;3.97;;;3.40;;
22665;SDS011;11499;49.486;11.104;2023-02-28T04:10:13;5.77;;;3.87;;
22665;SDS011;11499;49.486;11.104;2023-02-28T04:12:40;4.80;;;3.73;;
22665;SDS011;11499;49.486;11.104;2023-02-28T04:15:06;7.13;;;3.90;;
22665;SDS011;11499;49.486;11.104;2023-02-28T04:17:32;4.30;;;3.60;;
22665;SDS011;11499;49.486;11.104;2023-02-28T04:19:57;4.57;;;3.87;;
22665;SDS011;11499;49.486;11.104;2023-02-28T04:22:23;5.33;;;3.87;;
22665;SDS011;11499;49.486;11.104;2023-02-28T04:24:51;4.73;;;3.93;;
22665;SDS011;11499;49.486;11.104;2023-02-28T04:30:04;5.80;;;3.93;;
22665;SDS011;11499;49.486;11.104;2023-02-28T04:32:30;5.23;;;4.10;;
22665;SDS011;11499;49.486;11.104;2023-02-28T04:34:56;4.70;;;4.00;;
22665;SDS011;11499;49.486;11.104;2023-02-28T04:37:22;6.10;;;4.20;;
22665;SDS011;11499;49.486;11.104;2023-02-28T04:39:52;4.27;;;3.80;;
22665;SDS011;11499;49.486;11.104;2023-02-28T04:42:18;3.60;;;3.13;;
22665;SDS011;11499;49.486;11.104;2023-02-28T04:44:43;5.03;;;3.43;;
22665;SDS011;11499;49.486;11.104;2023-02-28T04:47:09;4.10;;;3.20;;
22665;SDS011;11499;49.486;11.104;2023-02-28T04:49:34;3.83;;;3.43;;
22665;SDS011;11499;49.486;11.104;2023-02-28T04:52:00;4.33;;;3.40;;
22665;SDS011;11499;49.486;11.104;2023-02-28T04:57:55;5.40;;;3.50;;
22665;SDS011;11499;49.486;11.104;2023-02-28T05:00:21;4.33;;;3.37;;
22665;SDS011;11499;49.486;11.104;2023-02-28T05:02:46;3.87;;;3.20;;
22665;SDS011;11499;49.486;11.104;2023-02-28T05:05:12;5.70;;;4.00;;
22665;SDS011;11499;49.486;11.104;2023-02-28T05:07:42;5.07;;;4.07;;
22665;SDS011;11499;49.486;11.104;2023-02-28T05:10:09;5.30;;;3.57;;
22665;SDS011;11499;49.486;11.104;2023-02-28T05:12:36;4.70;;;3.67;;
22665;SDS011;11499;49.486;11.104;2023-02-28T05:15:02;4.07;;;3.47;;
22665;SDS011;11499;49.486;11.104;2023-02-28T05:17:29;4.80;;;3.53;;
22665;SDS011;11499;49.486;11.104;2023-02-28T05:19:58;4.50;;;3.67;;
22665;SDS011;11499;49.486;11.104;2023-02-28T05:25:16;4.93;;;3.50;;
22665;SDS011;11499;49.486;11.104;2023-02-28T05:27:42;5.03;;;3.70;;
22665;SDS011;11499;49.486;11.104;2023-02-28T05:30:08;4.73;;;3.50;;
22665;SDS011;11499;49.486;11.104;2023-02-28T05:32:36;4.07;;;3.60;;
22665;SDS011;11499;49.486;11.104;2023-02-28T05:35:02;3.93;;;3.50;;
22665;SDS011;11499;49.486;11.104;2023-02-28T05:37:28;4.87;;;3.77;;
22665;SDS011;11499;49.486;11.104;2023-02-28T05:39:53;5.70;;;3.77;;
22665;SDS011;11499;49.486;11.104;2023-02-28T05:42:19;5.20;;;3.83;;
22665;SDS011;11499;49.486;11.104;2023-02-28T05:44:44;4.93;;;3.73;;
22665;SDS011;11499;49.486;11.104;2023-02-28T05:47:10;5.40;;;3.33;;
22665;SDS011;11499;49.486;11.104;2023-02-28T05:52:28;4.63;;;3.57;;
22665;SDS011;11499;49.486;11.104;2023-02-28T05:54:54;6.53;;;3.90;;
22665;SDS011;11499;49.486;11.104;2023-02-28T05:57:21;4.70;;;3.67;;
22665;SDS011;11499;49.486;11.104;2023-02-28T05:59:47;4.00;;;3.60;;
22665;SDS011;11499;49.486;11.104;2023-02-28T06:02:13;5.60;;;3.63;;
22665;SDS011;11499;49.486;11.104;2023-02-28T06:04:39;3.90;;;3.30;;
22665;SDS011;11499;49.486;11.104;2023-02-28T06:07:06;5.37;;;4.13;;
22665;SDS011;11499;49.486;11.104;2023-02-28T06:09:32;3.87;;;3.47;;
22665;SDS011;11499;49.486;11.104;2023-02-28T06:11:58;6.23;;;3.73;;
22665;SDS011;11499;49.486;11.104;2023-02-28T06:14:24;4.37;;;3.80;;
22665;SDS011;11499;49.486;11.104;2023-02-28T06:19:38;5.13;;;3.97;;
22665;SDS011;11499;49.486;11.104;2023-02-28T06:22:04;6.97;;;4.90;;
22665;SDS011;11499;49.486;11.104;2023-02-28T06:24:30;7.63;;;5.00;;
22665;SDS011;11499;49.486;11.104;2023-02-28T06:26:56;6.53;;;4.70;;
22665;SDS011;11499;49.486;11.104;2023-02-28T06:29:23;6.37;;;4.33;;
22665;SDS011;11499;49.486;11.104;2023-02-28T06:31:49;5.23;;;3.77;;
22665;SDS011;11499;49.486;11.104;2023-02-28T06:34:15;6.03;;;4.13;;
22665;SDS011;11499;49.486;11.104;2023-02-28T06:36:41;4.67;;;4.13;;
22665;SDS011;11499;49.486;11.104;2023-02-28T06:39:07;5.97;;;4.10;;
22665;SDS011;11499;49.486;11.104;2023-02-28T06:41:33;4.80;;;3.63;;
22665;SDS011;11499;49.486;11.104;2023-02-28T06:46:51;5.67;;;4.57;;
22665;SDS011;11499;49.486;11.104;2023-02-28T06:49:16;4.53;;;3.87;;
22665;SDS011;11499;49.486;11.104;2023-02-28T06:51:43;5.80;;;3.90;;
22665;SDS011;11499;49.486;11.104;2023-02-28T06:54:12;4.83;;;3.93;;
22665;SDS011;11499;49.486;11.104;2023-02-28T06:56:38;4.97;;;3.60;;
22665;SDS011;11499;49.486;11.104;2023-02-28T06:59:03;5.60;;;4.23;;
22665;SDS011;11499;49.486;11.104;2023-02-28T07:01:29;5.73;;;4.07;;
22665;SDS011;11499;49.486;11.104;2023-02-28T07:03:56;4.63;;;3.70;;
22665;SDS011;11499;49.486;11.104;2023-02-28T07:06:22;6.60;;;4.33;;
22665;SDS011;11499;49.486;11.104;2023-02-28T07:08:48;5.07;;;4.13;;
22665;SDS011;11499;49.486;11.104;2023-02-28T07:13:56;4.67;;;4.07;;
22665;SDS011;11499;49.486;11.104;2023-02-28T07:16:23;4.93;;;3.93;;
22665;SDS011;11499;49.486;11.104;2023-02-28T07:18:49;6.30;;;4.33;;
22665;SDS011;11499;49.486;11.104;2023-02-28T07:21:17;5.30;;;4.00;;
22665;SDS011;11499;49.486;11.104;2023-02-28T07:23:43;5.20;;;3.97;;
22665;SDS011;11499;49.486;11.104;2023-02-28T07:26:10;6.03;;;4.70;;
22665;SDS011;11499;49.486;11.104;2023-02-28T07:28:39;6.23;;;4.57;;
22665;SDS011;11499;49.486;11.104;2023-02-28T07:31:09;6.27;;;4.27;;
22665;SDS011;11499;49.486;11.104;2023-02-28T07:33:35;5.60;;;4.50;;
22665;SDS011;11499;49.486;11.104;2023-02-28T07:36:01;7.23;;;4.70;;
22665;SDS011;11499;49.486;11.104;2023-02-28T07:39:43;6.93;;;4.23;;
22665;SDS011;11499;49.486;11.104;2023-02-28T07:42:09;4.97;;;4.00;;
22665;SDS011;11499;49.486;11.104;2023-02-28T07:44:36;6.43;;;4.60;;
22665;SDS011;11499;49.486;11.104;2023-02-28T07:47:05;5.90;;;4.30;;
22665;SDS011;11499;49.486;11.104;2023-02-28T07:49:37;5.57;;;4.70;;
22665;SDS011;11499;49.486;11.104;2023-02-28T07:52:04;5.20;;;4.23;;
22665;SDS011;11499;49.486;11.104;2023-02-28T07:54:31;6.07;;;4.33;;
22665;SDS011;11499;49.486;11.104;2023-02-28T07:56:56;7.53;;;4.77;;
22665;SDS011;11499;49.486;11.104;2023-02-28T07:59:22;4.40;;;3.90;;
22665;SDS011;11499;49.486;11.104;2023-02-28T08:01:47;5.93;;;4.77;;
22665;SDS011;11499;49.486;11.104;2023-02-28T08:05:19;5.77;;;4.53;;
22665;SDS011;11499;49.486;11.104;2023-02-28T08:07:44;5.90;;;4.50;;
22665;SDS011;11499;49.486;11.104;2023-02-28T08:10:10;5.50;;;4.57;;
22665;SDS011;11499;49.486;11.104;2023-02-28T08:12:36;5.13;;;4.40;;
22665;SDS011;11499;49.486;11.104;2023-02-28T08:15:01;5.23;;;4.40;;
22665;SDS011;11499;49.486;11.104;2023-02-28T08:17:27;6.73;;;5.07;;
22665;SDS011;11499;49.486;11.104;2023-02-28T08:19:52;6.67;;;5.20;;
22665;SDS011;11499;49.486;11.104;2023-02-28T08:22:18;5.23;;;4.27;;
22665;SDS011;11499;49.486;11.104;2023-02-28T08:24:43;5.33;;;4.70;;
22665;SDS011;11499;49.486;11.104;2023-02-28T08:27:09;6.47;;;4.30;;
22665;SDS011;11499;49.486;11.104;2023-02-28T08:32:20;6.83;;;4.10;;
22665;SDS011;11499;49.486;11.104;2023-02-28T08:34:45;6.90;;;4.97;;
22665;SDS011;11499;49.486;11.104;2023-02-28T08:37:11;6.03;;;4.40;;
22665;SDS011;11499;49.486;11.104;2023-02-28T08:39:36;5.83;;;5.10;;
22665;SDS011;11499;49.486;11.104;2023-02-28T08:42:02;7.43;;;5.13;;
22665;SDS011;11499;49.486;11.104;2023-02-28T08:44:28;6.60;;;4.90;;
22665;SDS011;11499;49.486;11.104;2023-02-28T08:46:54;5.83;;;4.53;;
22665;SDS011;11499;49.486;11.104;2023-02-28T08:49:19;5.83;;;5.23;;
22665;SDS011;11499;49.486;11.104;2023-02-28T08:51:45;6.43;;;5.00;;
22665;SDS011;11499;49.486;11.104;2023-02-28T08:54:10;7.10;;;5.20;;
22665;SDS011;11499;49.486;11.104;2023-02-28T08:59:14;7.53;;;5.50;;
22665;SDS011;11499;49.486;11.104;2023-02-28T09:01:40;5.80;;;5.20;;
22665;SDS011;11499;49.486;11.104;2023-02-28T09:04:06;5.77;;;5.13;;
22665;SDS011;11499;49.486;11.104;2023-02-28T09:06:33;6.23;;;5.20;;
22665;SDS011;11499;49.486;11.104;2023-02-28T09:08:59;6.83;;;6.23;;
22665;SDS011;11499;49.486;11.104;2023-02-28T09:11:26;5.80;;;5.00;;
22665;SDS011;11499;49.486;11.104;2023-02-28T09:13:52;7.87;;;7.07;;
22665;SDS011;11499;49.486;11.104;2023-02-28T09:16:18;6.43;;;5.30;;
22665;SDS011;11499;49.486;11.104;2023-02-28T09:18:44;5.47;;;4.43;;
22665;SDS011;11499;49.486;11.104;2023-02-28T09:21:14;6.90;;;5.33;;
22665;SDS011;11499;49.486;11.104;2023-02-28T09:26:24;6.47;;;4.77;;
22665;SDS011;11499;49.486;11.104;2023-02-28T09:28:51;6.17;;;4.90;;
22665;SDS011;11499;49.486;11.104;2023-02-28T09:31:23;5.90;;;5.07;;
22665;SDS011;11499;49.486;11.104;2023-02-28T09:33:51;5.07;;;4.20;;
22665;SDS011;11499;49.486;11.104;2023-02-28T09:36:18;5.93;;;4.87;;
22665;SDS011;11499;49.486;11.104;2023-02-28T09:38:44;7.40;;;5.13;;
22665;SDS011;11499;49.486;11.104;2023-02-28T09:41:13;5.20;;;4.70;;
22665;SDS011;11499;49.486;11.104;2023-02-28T09:43:45;6.30;;;4.90;;
22665;SDS011;11499;49.486;11.104;2023-02-28T09:46:18;7.80;;;5.73;;
22665;SDS011;11499;49.486;11.104;2023-02-28T09:54:15;7.37;;;4.23;;
22665;SDS011;11499;49.486;11.104;2023-02-28T09:56:44;6.00;;;4.43;;
22665;SDS011;11499;49.486;11.104;2023-02-28T09:59:42;5.35;;;4.38;;
22665;SDS011;11499;49.486;11.104;2023-02-28T10:02:24;6.00;;;4.60;;
22665;SDS011;11499;49.486;11.104;2023-02-28T10:04:59;6.70;;;4.70;;
22665;SDS011;11499;49.486;11.104;2023-02-28T10:10:36;5.50;;;4.30;;
22665;SDS011;11499;49.486;11.104;2023-02-28T10:13:04;5.97;;;4.07;;
22665;SDS011;11499;49.486;11.104;2023-02-28T10:18:27;7.03;;;4.70;;
22665;SDS011;11499;49.486;11.104;2023-02-28T10:20:55;5.30;;;4.55;;
22665;SDS011;11499;49.486;11.104;2023-02-28T10:25:57;4.47;;;3.90;;
22665;SDS011;11499;49.486;11.104;2023-02-28T10:28:26;5.90;;;4.82;;
22665;SDS011;11499;49.486;11.104;2023-02-28T10:30:55;5.53;;;4.15;;
22665;SDS011;11499;49.486;11.104;2023-02-28T10:36:02;5.63;;;4.10;;
22665;SDS011;11499;49.486;11.104;2023-02-28T10:38:35;4.93;;;4.43;;
22665;SDS011;11499;49.486;11.104;2023-02-28T10:43:38;5.10;;;4.40;;
22665;SDS011;11499;49.486;11.104;2023-02-28T10:48:38;5.13;;;4.60;;
22665;SDS011;11499;49.486;11.104;2023-02-28T10:51:10;5.27;;;4.03;;
22665;SDS011;11499;49.486;11.104;2023-02-28T10:53:58;5.17;;;4.23;;
22665;SDS011;11499;49.486;11.104;2023-02-28T10:56:24;7.07;;;4.40;;
22665;SDS011;11499;49.486;11.104;2023-02-28T11:06:57;7.53;;;4.13;;
22665;SDS011;11499;49.486;11.104;2023-02-28T11:11:05;5.73;;;4.53;;
22665;SDS011;11499;49.486;11.104;2023-02-28T11:13:32;5.43;;;4.17;;
22665;SDS011;11499;49.486;11.104;2023-02-28T11:16:00;4.90;;;4.40;;
22665;SDS011;11499;49.486;11.104;2023-02-28T11:21:06;6.73;;;4.40;;
22665;SDS011;11499;49.486;11.104;2023-02-28T11:23:35;5.47;;;4.40;;
22665;SDS011;11499;49.486;11.104;2023-02-28T11:26:05;7.23;;;4.47;;
22665;SDS011;11499;49.486;11.104;2023-02-28T11:28:35;4.83;;;4.27;;
22665;SDS011;11499;49.486;11.104;2023-02-28T11:36:50;4.70;;;4.20;;
22665;SDS011;11499;49.486;11.104;2023-02-28T11:39:17;4.77;;;3.83;;
22665;SDS011;11499;49.486;11.104;2023-02-28T11:41:58;5.57;;;4.78;;
22665;SDS011;11499;49.486;11.104;2023-02-28T11:51:32;4.93;;;4.20;;
22665;SDS011;11499;49.486;11.104;2023-02-28T11:56:42;5.00;;;4.23;;
22665;SDS011;11499;49.486;11.104;2023-02-28T12:03:54;6.17;;;4.23;;
22665;SDS011;11499;49.486;11.104;2023-02-28T12:06:57;6.70;;;4.40;;
22665;SDS011;11499;49.486;11.104;2023-02-28T12:29:21;7.23;;;4.30;;
22665;SDS011;11499;49.486;11.104;2023-02-28T12:31:53;4.30;;;3.90;;
22665;SDS011;11499;49.486;11.104;2023-02-28T12:34:31;6.43;;;4.80;;
22665;SDS011;11499;49.486;11.104;2023-02-28T12:40:16;5.87;;;4.27;;
22665;SDS011;11499;49.486;11.104;2023-02-28T12:42:46;8.93;;;4.53;;
22665;SDS011;11499;49.486;11.104;2023-02-28T12:45:40;7.07;;;4.80;;
22665;SDS011;11499;49.486;11.104;2023-02-28T12:48:27;5.17;;;4.63;;
22665;SDS011;11499;49.486;11.104;2023-02-28T12:51:02;5.60;;;4.60;;
22665;SDS011;11499;49.486;11.104;2023-02-28T12:56:16;5.50;;;4.90;;
22665;SDS011;11499;49.486;11.104;2023-02-28T12:58:43;6.13;;;4.60;;
22665;SDS011;11499;49.486;11.104;2023-02-28T13:07:15;5.90;;;5.07;;
22665;SDS011;11499;49.486;11.104;2023-02-28T13:09:41;6.43;;;4.90;;
22665;SDS011;11499;49.486;11.104;2023-02-28T13:12:21;7.13;;;5.33;;
22665;SDS011;11499;49.486;11.104;2023-02-28T13:14:47;7.33;;;5.17;;
22665;SDS011;11499;49.486;11.104;2023-02-28T13:17:21;7.73;;;5.23;;
22665;SDS011;11499;49.486;11.104;2023-02-28T13:23:01;6.30;;;5.10;;
22665;SDS011;11499;49.486;11.104;2023-02-28T13:27:59;7.20;;;5.85;;
22665;SDS011;11499;49.486;11.104;2023-02-28T13:33:37;7.10;;;5.67;;
22665;SDS011;11499;49.486;11.104;2023-02-28T13:36:24;7.17;;;5.57;;
22665;SDS011;11499;49.486;11.104;2023-02-28T13:38:55;6.67;;;5.60;;
22665;SDS011;11499;49.486;11.104;2023-02-28T13:49:28;5.70;;;5.10;;
22665;SDS011;11499;49.486;11.104;2023-02-28T14:00:02;7.73;;;4.77;;
22665;SDS011;11499;49.486;11.104;2023-02-28T14:05:18;7.93;;;5.23;;
22665;SDS011;11499;49.486;11.104;2023-02-28T14:07:50;7.47;;;5.20;;
22665;SDS011;11499;49.486;11.104;2023-02-28T14:10:42;5.70;;;4.97;;
22665;SDS011;11499;49.486;11.104;2023-02-28T14:17:12;5.37;;;4.87;;
22665;SDS011;11499;49.486;11.104;2023-02-28T14:19:41;6.20;;;4.90;;
22665;SDS011;11499;49.486;11.104;2023-02-28T14:28:18;6.23;;;5.33;;
22665;SDS011;11499;49.486;11.104;2023-02-28T14:33:38;6.33;;;5.63;;
22665;SDS011;11499;49.486;11.104;2023-02-28T14:36:23;5.87;;;5.27;;
22665;SDS011;11499;49.486;11.104;2023-02-28T14:41:16;7.03;;;5.97;;
22665;SDS011;11499;49.486;11.104;2023-02-28T14:43:54;5.47;;;4.67;;
22665;SDS011;11499;49.486;11.104;2023-02-28T14:46:22;6.47;;;5.40;;
22665;SDS011;11499;49.486;11.104;2023-02-28T14:48:59;7.80;;;5.93;;
22665;SDS011;11499;49.486;11.104;2023-02-28T14:51:24;10.43;;;5.23;;
22665;SDS011;11499;49.486;11.104;2023-02-28T14:53:51;7.40;;;5.40;;
22665;SDS011;11499;49.486;11.104;2023-02-28T14:56:43;7.53;;;5.00;;
22665;SDS011;11499;49.486;11.104;2023-02-28T14:59:22;6.00;;;5.40;;
22665;SDS011;11499;49.486;11.104;2023-02-28T15:01:50;6.00;;;5.30;;
22665;SDS011;11499;49.486;11.104;2023-02-28T15:04:25;6.40;;;5.47;;
22665;SDS011;11499;49.486;11.104;2023-02-28T15:08:39;6.20;;;5.37;;
22665;SDS011;11499;49.486;11.104;2023-02-28T15:11:05;7.33;;;5.30;;
22665;SDS011;11499;49.486;11.104;2023-02-28T15:13:50;6.00;;;5.27;;
22665;SDS011;11499;49.486;11.104;2023-02-28T15:18:48;7.13;;;5.57;;
22665;SDS011;11499;49.486;11.104;2023-02-28T15:21:24;6.47;;;5.60;;
22665;SDS011;11499;49.486;11.104;2023-02-28T15:26:24;6.70;;;5.73;;
22665;SDS011;11499;49.486;11.104;2023-02-28T15:28:58;6.43;;;5.27;;
22665;SDS011;11499;49.486;11.104;2023-02-28T15:34:28;7.07;;;5.23;;
22665;SDS011;11499;49.486;11.104;2023-02-28T15:36:59;6.20;;;5.30;;
22665;SDS011;11499;49.486;11.104;2023-02-28T15:39:27;6.00;;;5.40;;
22665;SDS011;11499;49.486;11.104;2023-02-28T15:42:09;5.97;;;5.20;;
22665;SDS011;11499;49.486;11.104;2023-02-28T15:44:44;6.93;;;5.00;;
22665;SDS011;11499;49.486;11.104;2023-02-28T15:47:16;8.20;;;5.77;;
22665;SDS011;11499;49.486;11.104;2023-02-28T15:49:49;8.77;;;5.87;;
22665;SDS011;11499;49.486;11.104;2023-02-28T15:52:18;8.10;;;5.30;;
22665;SDS011;11499;49.486;11.104;2023-02-28T15:54:51;5.70;;;5.13;;
22665;SDS011;11499;49.486;11.104;2023-02-28T15:59:54;6.43;;;5.73;;
22665;SDS011;11499;49.486;11.104;2023-02-28T16:02:32;6.23;;;5.10;;
22665;SDS011;11499;49.486;11.104;2023-02-28T16:07:27;7.67;;;5.80;;
22665;SDS011;11499;49.486;11.104;2023-02-28T16:09:53;7.17;;;5.63;;
22665;SDS011;11499;49.486;11.104;2023-02-28T16:12:20;7.83;;;6.33;;
22665;SDS011;11499;49.486;11.104;2023-02-28T16:14:50;7.73;;;5.83;;
22665;SDS011;11499;49.486;11.104;2023-02-28T16:17:20;6.20;;;5.20;;
22665;SDS011;11499;49.486;11.104;2023-02-28T16:19:47;7.20;;;5.80;;
22665;SDS011;11499;49.486;11.104;2023-02-28T16:22:13;6.47;;;5.60;;
22665;SDS011;11499;49.486;11.104;2023-02-28T16:27:24;7.10;;;5.73;;
22665;SDS011;11499;49.486;11.104;2023-02-28T16:29:55;8.90;;;5.60;;
22665;SDS011;11499;49.486;11.104;2023-02-28T16:32:21;6.83;;;5.03;;
22665;SDS011;11499;49.486;11.104;2023-02-28T16:34:46;6.40;;;5.50;;
22665;SDS011;11499;49.486;11.104;2023-02-28T16:37:13;9.63;;;6.93;;
22665;SDS011;11499;49.486;11.104;2023-02-28T16:39:40;6.53;;;5.57;;
22665;SDS011;11499;49.486;11.104;2023-02-28T16:42:08;7.83;;;5.83;;
22665;SDS011;11499;49.486;11.104;2023-02-28T16:44:56;6.67;;;5.70;;
22665;SDS011;11499;49.486;11.104;2023-02-28T16:47:22;7.40;;;6.43;;
22665;SDS011;11499;49.486;11.104;2023-02-28T16:49:48;8.97;;;6.87;;
22665;SDS011;11499;49.486;11.104;2023-02-28T16:52:14;6.47;;;5.87;;
22665;SDS011;11499;49.486;11.104;2023-02-28T16:54:40;7.37;;;5.93;;
22665;SDS011;11499;49.486;11.104;2023-02-28T16:58:46;7.43;;;5.90;;
22665;SDS011;11499;49.486;11.104;2023-02-28T17:01:13;7.97;;;5.73;;
22665;SDS011;11499;49.486;11.104;2023-02-28T17:03:40;8.43;;;5.93;;
22665;SDS011;11499;49.486;11.104;2023-02-28T17:06:06;7.73;;;6.07;;
22665;SDS011;11499;49.486;11.104;2023-02-28T17:08:40;10.17;;;6.87;;
22665;SDS011;11499;49.486;11.104;2023-02-28T17:11:06;8.07;;;6.80;;
22665;SDS011;11499;49.486;11.104;2023-02-28T17:13:31;7.27;;;6.33;;
22665;SDS011;11499;49.486;11.104;2023-02-28T17:15:59;7.33;;;5.67;;
22665;SDS011;11499;49.486;11.104;2023-02-28T17:18:24;9.63;;;6.17;;
22665;SDS011;11499;49.486;11.104;2023-02-28T17:20:51;6.60;;;5.67;;
22665;SDS011;11499;49.486;11.104;2023-02-28T17:25:31;6.97;;;5.80;;
22665;SDS011;11499;49.486;11.104;2023-02-28T17:27:57;8.27;;;6.17;;
22665;SDS011;11499;49.486;11.104;2023-02-28T17:30:23;7.60;;;6.13;;
22665;SDS011;11499;49.486;11.104;2023-02-28T17:32:52;8.07;;;6.00;;
22665;SDS011;11499;49.486;11.104;2023-02-28T17:35:18;9.40;;;6.30;;
22665;SDS011;11499;49.486;11.104;2023-02-28T17:37:43;12.40;;;6.90;;
22665;SDS011;11499;49.486;11.104;2023-02-28T17:40:13;8.43;;;6.87;;
22665;SDS011;11499;49.486;11.104;2023-02-28T17:42:40;8.57;;;6.77;;
22665;SDS011;11499;49.486;11.104;2023-02-28T17:45:06;8.93;;;6.67;;
22665;SDS011;11499;49.486;11.104;2023-02-28T17:47:31;9.30;;;6.73;;
22665;SDS011;11499;49.486;11.104;2023-02-28T17:52:28;7.40;;;5.40;;
22665;SDS011;11499;49.486;11.104;2023-02-28T17:54:54;7.33;;;5.80;;
22665;SDS011;11499;49.486;11.104;2023-02-28T17:57:20;7.53;;;5.17;;
22665;SDS011;11499;49.486;11.104;2023-02-28T17:59:45;7.70;;;5.83;;
22665;SDS011;11499;49.486;11.104;2023-02-28T18:02:11;9.77;;;6.27;;
22665;SDS011;11499;49.486;11.104;2023-02-28T18:04:38;9.47;;;6.93;;
22665;SDS011;11499;49.486;11.104;2023-02-28T18:07:03;10.50;;;8.00;;
22665;SDS011;11499;49.486;11.104;2023-02-28T18:09:31;10.10;;;7.53;;
22665;SDS011;11499;49.486;11.104;2023-02-28T18:11:56;10.07;;;7.23;;
22665;SDS011;11499;49.486;11.104;2023-02-28T18:14:23;9.57;;;7.20;;
22665;SDS011;11499;49.486;11.104;2023-02-28T18:16:50;11.57;;;7.33;;
22665;SDS011;11499;49.486;11.104;2023-02-28T18:22:50;13.03;;;7.50;;
22665;SDS011;11499;49.486;11.104;2023-02-28T18:25:15;9.77;;;6.63;;
22665;SDS011;11499;49.486;11.104;2023-02-28T18:27:42;9.57;;;6.50;;
22665;SDS011;11499;49.486;11.104;2023-02-28T18:30:30;8.40;;;6.47;;
22665;SDS011;11499;49.486;11.104;2023-02-28T18:32:57;14.70;;;8.37;;
22665;SDS011;11499;49.486;11.104;2023-02-28T18:35:23;10.70;;;7.63;;
22665;SDS011;11499;49.486;11.104;2023-02-28T18:38:10;11.03;;;8.07;;
22665;SDS011;11499;49.486;11.104;2023-02-28T18:40:40;7.47;;;6.63;;
22665;SDS011;11499;49.486;11.104;2023-02-28T18:43:07;8.97;;;7.20;;
22665;SDS011;11499;49.486;11.104;2023-02-28T18:45:36;8.80;;;6.60;;
22665;SDS011;11499;49.486;11.104;2023-02-28T18:50:50;10.07;;;7.70;;